^^
Saratoga-Weather Station Historical Data
Daily Summary for June 24, 2021 Units:  Both    English   Metric
Daily Weekly Monthly Yearly Custom
  High: Low: Average:
Temperature: 73.9 °F /  23.3 °C 55.9 °F /  13.3 °C 64.6 °F /  18.1 °C
Dew Point: 59.7 °F /  15.4 °C 52 °F /  11.1 °C 55.2 °F /  12.9 °C
Humidity: 94% 50% 74%
Wind Speed: 11mph /  17.7km/h - 2.1mph /  3.3km/h
Wind Gust: 13mph /  20.9km/h - -
Wind- - SE
Pressure: 30.2 in /  1023.7 hPa 30.2 in /  1021.7 hPa -
Precipitation: 0 in /  0.0 mm    
Historical Graphs
 
 
Tabular Data for June 24, 2021
Time Temperature Dew Point Pressure Wind Wind Speed Wind Gust Humidity Rainfall Rate (Hourly) solar
00:04 64.6 °F /  18.1 °C 59 °F /  15 °C 30.2in /  1022.7hPa NNW 0.9mph /  1.4km/h 1mph /  1.6km/h 82% 0in /  0.0mm 0 W/m2
00:09 64.6 °F /  18.1 °C 59 °F /  15 °C 30.2in /  1022.7hPa Calm   3mph /  4.8km/h 82% 0in /  0.0mm 0 W/m2
00:14 64.4 °F /  18 °C 59.2 °F /  15.1 °C 30.2in /  1022.7hPa ESE 2mph /  3.2km/h 2mph /  3.2km/h 83% 0in /  0.0mm 0 W/m2
00:19 64.2 °F /  17.9 °C 59 °F /  15 °C 30.2in /  1022.7hPa Calm   1mph /  1.6km/h 83% 0in /  0.0mm 0 W/m2
00:24 64.2 °F /  17.9 °C 59 °F /  15 °C 30.2in /  1022.7hPa East 2mph /  3.2km/h 5mph /  8km/h 83% 0in /  0.0mm 0 W/m2
00:29 64.2 °F /  17.9 °C 59 °F /  15 °C 30.2in /  1022.7hPa East 0.9mph /  1.4km/h 4mph /  6.4km/h 83% 0in /  0.0mm 0 W/m2
00:34 64.2 °F /  17.9 °C 59.4 °F /  15.2 °C 30.2in /  1022.7hPa NNE 0.9mph /  1.4km/h 4mph /  6.4km/h 84% 0in /  0.0mm 0 W/m2
00:39 64 °F /  17.8 °C 59.2 °F /  15.1 °C 30.2in /  1022.7hPa Calm   1mph /  1.6km/h 84% 0in /  0.0mm 0 W/m2
00:44 64 °F /  17.8 °C 59.2 °F /  15.1 °C 30.2in /  1022.7hPa NE 2mph /  3.2km/h 5mph /  8km/h 84% 0in /  0.0mm 0 W/m2
00:49 64 °F /  17.8 °C 59.2 °F /  15.1 °C 30.2in /  1022.7hPa East 0.9mph /  1.4km/h 2mph /  3.2km/h 84% 0in /  0.0mm 0 W/m2
00:54 64 °F /  17.8 °C 59.4 °F /  15.2 °C 30.2in /  1022.7hPa Calm   1mph /  1.6km/h 85% 0in /  0.0mm 0 W/m2
00:59 64 °F /  17.8 °C 59.4 °F /  15.2 °C 30.2in /  1022.7hPa NE 2.9mph /  4.7km/h 3mph /  4.8km/h 85% 0in /  0.0mm 0 W/m2
01:04 63.9 °F /  17.7 °C 59.2 °F /  15.1 °C 30.2in /  1022.7hPa NW 0.9mph /  1.4km/h 2mph /  3.2km/h 85% 0in /  0.0mm 0 W/m2
01:10 63.9 °F /  17.7 °C 59.2 °F /  15.1 °C 30.2in /  1022.7hPa ESE 0.9mph /  1.4km/h 3mph /  4.8km/h 85% 0in /  0.0mm 0 W/m2
01:15 63.9 °F /  17.7 °C 59.2 °F /  15.1 °C 30.2in /  1022.7hPa NNE 0.9mph /  1.4km/h 2mph /  3.2km/h 85% 0in /  0.0mm 0 W/m2
01:20 63.9 °F /  17.7 °C 59.5 °F /  15.3 °C 30.2in /  1022.7hPa SE 2.9mph /  4.7km/h 3mph /  4.8km/h 86% 0in /  0.0mm 0 W/m2
01:25 63.9 °F /  17.7 °C 59.5 °F /  15.3 °C 30.2in /  1022.7hPa NE 0.9mph /  1.4km/h 3mph /  4.8km/h 86% 0in /  0.0mm 0 W/m2
01:30 63.7 °F /  17.6 °C 59.4 °F /  15.2 °C 30.2in /  1022.4hPa ESE 0.9mph /  1.4km/h 6mph /  9.7km/h 86% 0in /  0.0mm 0 W/m2
01:35 63.7 °F /  17.6 °C 59.4 °F /  15.2 °C 30.2in /  1022.4hPa SE 2mph /  3.2km/h 3mph /  4.8km/h 86% 0in /  0.0mm 0 W/m2
01:40 63.7 °F /  17.6 °C 59.7 °F /  15.4 °C 30.2in /  1022.4hPa NW 2.9mph /  4.7km/h 6mph /  9.7km/h 87% 0in /  0.0mm 0 W/m2
01:45 63.7 °F /  17.6 °C 59.7 °F /  15.4 °C 30.2in /  1022.4hPa NW 4.9mph /  7.9km/h 5mph /  8km/h 87% 0in /  0.0mm 0 W/m2
01:50 63.3 °F /  17.4 °C 59.4 °F /  15.2 °C 30.2in /  1022.4hPa NW 2mph /  3.2km/h 3mph /  4.8km/h 87% 0in /  0.0mm 0 W/m2
01:55 63.3 °F /  17.4 °C 59.4 °F /  15.2 °C 30.2in /  1022.4hPa ENE 5mph /  8km/h 5mph /  8km/h 87% 0in /  0.0mm 0 W/m2
02:00 63.1 °F /  17.3 °C 59.2 °F /  15.1 °C 30.2in /  1022.4hPa NNE 4mph /  6.4km/h 4mph /  6.4km/h 87% 0in /  0.0mm 0 W/m2
02:05 63.1 °F /  17.3 °C 59.2 °F /  15.1 °C 30.2in /  1022.4hPa NE 2.9mph /  4.7km/h 5mph /  8km/h 87% 0in /  0.0mm 0 W/m2
02:10 63 °F /  17.2 °C 59 °F /  15 °C 30.2in /  1022.4hPa East 2mph /  3.2km/h 2mph /  3.2km/h 87% 0in /  0.0mm 0 W/m2
02:15 62.8 °F /  17.1 °C 58.8 °F /  14.9 °C 30.2in /  1022.4hPa North 0.9mph /  1.4km/h 3mph /  4.8km/h 87% 0in /  0.0mm 0 W/m2
02:20 62.4 °F /  16.9 °C 58.8 °F /  14.9 °C 30.2in /  1022.4hPa Calm     88% 0in /  0.0mm 0 W/m2
02:25 62.2 °F /  16.8 °C 58.6 °F /  14.8 °C 30.2in /  1022.4hPa West 0.9mph /  1.4km/h 2mph /  3.2km/h 88% 0in /  0.0mm 0 W/m2
02:30 62.1 °F /  16.7 °C 58.8 °F /  14.9 °C 30.2in /  1022.4hPa Calm   2mph /  3.2km/h 89% 0in /  0.0mm 0 W/m2
02:35 61.9 °F /  16.6 °C 58.6 °F /  14.8 °C 30.2in /  1022.4hPa NW 0.9mph /  1.4km/h 1mph /  1.6km/h 89% 0in /  0.0mm 0 W/m2
02:40 61.7 °F /  16.5 °C 58.5 °F /  14.7 °C 30.2in /  1022.4hPa NW 0.9mph /  1.4km/h 2mph /  3.2km/h 89% 0in /  0.0mm 0 W/m2
02:45 61.5 °F /  16.4 °C 58.6 °F /  14.8 °C 30.2in /  1022.4hPa Calm   1mph /  1.6km/h 90% 0in /  0.0mm 0 W/m2
02:50 61.3 °F /  16.3 °C 58.5 °F /  14.7 °C 30.2in /  1022.4hPa SW 0.9mph /  1.4km/h 2mph /  3.2km/h 90% 0in /  0.0mm 0 W/m2
02:55 61.3 °F /  16.3 °C 58.5 °F /  14.7 °C 30.2in /  1022.4hPa NNW 0.9mph /  1.4km/h 4mph /  6.4km/h 90% 0in /  0.0mm 0 W/m2
03:00 61.2 °F /  16.2 °C 58.3 °F /  14.6 °C 30.2in /  1022.4hPa SW 2mph /  3.2km/h 2mph /  3.2km/h 90% 0in /  0.0mm 0 W/m2
03:05 61 °F /  16.1 °C 58.1 °F /  14.5 °C 30.2in /  1022.4hPa NE 0.9mph /  1.4km/h 4mph /  6.4km/h 90% 0in /  0.0mm 0 W/m2
03:10 60.8 °F /  16 °C 57.9 °F /  14.4 °C 30.2in /  1022.4hPa Calm   2mph /  3.2km/h 90% 0in /  0.0mm 0 W/m2
03:15 60.6 °F /  15.9 °C 57.7 °F /  14.3 °C 30.2in /  1022.4hPa ENE 0.9mph /  1.4km/h 3mph /  4.8km/h 90% 0in /  0.0mm 0 W/m2
03:20 60.4 °F /  15.8 °C 57.7 °F /  14.3 °C 30.2in /  1022.4hPa Calm   1mph /  1.6km/h 91% 0in /  0.0mm 0 W/m2
03:25 60.4 °F /  15.8 °C 57.7 °F /  14.3 °C 30.2in /  1022.4hPa Calm   2mph /  3.2km/h 91% 0in /  0.0mm 0 W/m2
03:30 60.3 °F /  15.7 °C 57.6 °F /  14.2 °C 30.2in /  1022.4hPa Calm   1mph /  1.6km/h 91% 0in /  0.0mm 0 W/m2
03:35 60.1 °F /  15.6 °C 57.4 °F /  14.1 °C 30.2in /  1022.4hPa Calm   1mph /  1.6km/h 91% 0in /  0.0mm 0 W/m2
03:40 59.7 °F /  15.4 °C 57 °F /  13.9 °C 30.2in /  1022.4hPa NW 0.9mph /  1.4km/h 2mph /  3.2km/h 91% 0in /  0.0mm 0 W/m2
03:45 59.5 °F /  15.3 °C 57.2 °F /  14 °C 30.2in /  1022.4hPa Calm   2mph /  3.2km/h 92% 0in /  0.0mm 0 W/m2
03:50 59.5 °F /  15.3 °C 57.2 °F /  14 °C 30.2in /  1022.4hPa WNW 2mph /  3.2km/h 3mph /  4.8km/h 92% 0in /  0.0mm 0 W/m2
03:55 59.4 °F /  15.2 °C 57 °F /  13.9 °C 30.2in /  1022.4hPa WNW 0.9mph /  1.4km/h 2mph /  3.2km/h 92% 0in /  0.0mm 0 W/m2
04:01 59.4 °F /  15.2 °C 57 °F /  13.9 °C 30.2in /  1022.4hPa WNW 2mph /  3.2km/h 3mph /  4.8km/h 92% 0in /  0.0mm 0 W/m2
04:06 59.2 °F /  15.1 °C 56.8 °F /  13.8 °C 30.2in /  1022.4hPa WNW 2mph /  3.2km/h 4mph /  6.4km/h 92% 0in /  0.0mm 0 W/m2
04:11 59.2 °F /  15.1 °C 56.8 °F /  13.8 °C 30.2in /  1022.4hPa North 0.9mph /  1.4km/h 1mph /  1.6km/h 92% 0in /  0.0mm 0 W/m2
04:16 59 °F /  15 °C 56.7 °F /  13.7 °C 30.2in /  1022.4hPa Calm   4mph /  6.4km/h 92% 0in /  0.0mm 0 W/m2
04:21 58.8 °F /  14.9 °C 56.5 °F /  13.6 °C 30.2in /  1022.4hPa NNE 0.9mph /  1.4km/h 1mph /  1.6km/h 92% 0in /  0.0mm 0 W/m2
04:26 58.8 °F /  14.9 °C 56.5 °F /  13.6 °C 30.2in /  1022.4hPa Calm   4mph /  6.4km/h 92% 0in /  0.0mm 0 W/m2
04:31 58.6 °F /  14.8 °C 56.3 °F /  13.5 °C 30.2in /  1022.4hPa Calm   3mph /  4.8km/h 92% 0in /  0.0mm 0 W/m2
04:36 58.5 °F /  14.7 °C 56.1 °F /  13.4 °C 30.2in /  1022.4hPa WSW 0.9mph /  1.4km/h 2mph /  3.2km/h 92% 0in /  0.0mm 0 W/m2
04:41 58.3 °F /  14.6 °C 56.3 °F /  13.5 °C 30.2in /  1022.4hPa WSW 0.9mph /  1.4km/h 3mph /  4.8km/h 93% 0in /  0.0mm 0 W/m2
04:46 58.3 °F /  14.6 °C 56.3 °F /  13.5 °C 30.2in /  1022.4hPa Calm   1mph /  1.6km/h 93% 0in /  0.0mm 0 W/m2
04:51 57.9 °F /  14.4 °C 55.9 °F /  13.3 °C 30.2in /  1022.4hPa WSW 0.9mph /  1.4km/h 2mph /  3.2km/h 93% 0in /  0.0mm 0 W/m2
04:56 57.9 °F /  14.4 °C 55.9 °F /  13.3 °C 30.2in /  1022.4hPa Calm   4mph /  6.4km/h 93% 0in /  0.0mm 0 W/m2
05:01 57.9 °F /  14.4 °C 55.9 °F /  13.3 °C 30.2in /  1022.4hPa Calm   1mph /  1.6km/h 93% 0in /  0.0mm 0 W/m2
05:06 57.7 °F /  14.3 °C 55.8 °F /  13.2 °C 30.2in /  1022.7hPa NW 2mph /  3.2km/h 4mph /  6.4km/h 93% 0in /  0.0mm 0 W/m2
05:11 57.7 °F /  14.3 °C 55.8 °F /  13.2 °C 30.2in /  1022.4hPa West 0.9mph /  1.4km/h 1mph /  1.6km/h 93% 0in /  0.0mm 0 W/m2
05:16 57.7 °F /  14.3 °C 55.8 °F /  13.2 °C 30.2in /  1022.7hPa Calm   3mph /  4.8km/h 93% 0in /  0.0mm 0 W/m2
05:21 57.7 °F /  14.3 °C 55.8 °F /  13.2 °C 30.2in /  1022.7hPa WNW 0.9mph /  1.4km/h 2mph /  3.2km/h 93% 0in /  0.0mm 0 W/m2
05:26 57.7 °F /  14.3 °C 55.8 °F /  13.2 °C 30.2in /  1022.7hPa Calm     93% 0in /  0.0mm 0 W/m2
05:31 57.6 °F /  14.2 °C 55.6 °F /  13.1 °C 30.2in /  1022.7hPa WSW 0.9mph /  1.4km/h 2mph /  3.2km/h 93% 0in /  0.0mm 0 W/m2
05:36 57.6 °F /  14.2 °C 55.8 °F /  13.2 °C 30.2in /  1022.7hPa WNW 2mph /  3.2km/h 3mph /  4.8km/h 94% 0in /  0.0mm 0 W/m2
05:41 57.6 °F /  14.2 °C 55.8 °F /  13.2 °C 30.2in /  1022.7hPa Calm   2mph /  3.2km/h 94% 0in /  0.0mm 0 W/m2
05:46 57.6 °F /  14.2 °C 55.8 °F /  13.2 °C 30.2in /  1022.7hPa West 2.9mph /  4.7km/h 3mph /  4.8km/h 94% 0in /  0.0mm 0 W/m2
05:51 57.4 °F /  14.1 °C 55.6 °F /  13.1 °C 30.2in /  1022.4hPa NW 2.9mph /  4.7km/h 3mph /  4.8km/h 94% 0in /  0.0mm 0 W/m2
05:56 57.4 °F /  14.1 °C 55.6 °F /  13.1 °C 30.2in /  1022.7hPa Calm   1mph /  1.6km/h 94% 0in /  0.0mm 0 W/m2
06:01 57.2 °F /  14 °C 55.4 °F /  13 °C 30.2in /  1022.7hPa Calm   1mph /  1.6km/h 94% 0in /  0.0mm 0 W/m2
06:06 57 °F /  13.9 °C 55 °F /  12.8 °C 30.2in /  1022.7hPa Calm   3mph /  4.8km/h 93% 0in /  0.0mm 0 W/m2
06:11 57 °F /  13.9 °C 55.2 °F /  12.9 °C 30.2in /  1022.7hPa WNW 2mph /  3.2km/h 2mph /  3.2km/h 94% 0in /  0.0mm 0 W/m2
06:16 56.8 °F /  13.8 °C 55.2 °F /  12.9 °C 30.2in /  1023.0hPa Calm   1mph /  1.6km/h 94% 0in /  0.0mm 0 W/m2
06:21 56.8 °F /  13.8 °C 55.2 °F /  12.9 °C 30.2in /  1023.0hPa West 0.9mph /  1.4km/h 2mph /  3.2km/h 94% 0in /  0.0mm 0 W/m2
06:26 56.7 °F /  13.7 °C 55 °F /  12.8 °C 30.2in /  1023.0hPa Calm   3mph /  4.8km/h 94% 0in /  0.0mm 0 W/m2
06:31 56.7 °F /  13.7 °C 55 °F /  12.8 °C 30.2in /  1023.0hPa Calm   1mph /  1.6km/h 94% 0in /  0.0mm 0 W/m2
06:36 56.7 °F /  13.7 °C 55 °F /  12.8 °C 30.2in /  1023.0hPa WSW 2mph /  3.2km/h 3mph /  4.8km/h 94% 0in /  0.0mm 0 W/m2
06:41 56.5 °F /  13.6 °C 54.9 °F /  12.7 °C 30.2in /  1023.0hPa WSW 0.9mph /  1.4km/h 2mph /  3.2km/h 94% 0in /  0.0mm 0 W/m2
06:46 56.3 °F /  13.5 °C 54.7 °F /  12.6 °C 30.2in /  1023.0hPa WSW 2.9mph /  4.7km/h 3mph /  4.8km/h 94% 0in /  0.0mm 7 W/m2
06:51 56.1 °F /  13.4 °C 54.5 °F /  12.5 °C 30.2in /  1023.0hPa Calm     94% 0in /  0.0mm 9 W/m2
06:56 56.1 °F /  13.4 °C 54.5 °F /  12.5 °C 30.2in /  1023.4hPa Calm   2mph /  3.2km/h 94% 0in /  0.0mm 12 W/m2
07:01 56.1 °F /  13.4 °C 54.5 °F /  12.5 °C 30.2in /  1023.4hPa Calm     94% 0in /  0.0mm 14 W/m2
07:06 55.9 °F /  13.3 °C 54.3 °F /  12.4 °C 30.2in /  1023.4hPa Calm   2mph /  3.2km/h 94% 0in /  0.0mm 18 W/m2
07:11 55.9 °F /  13.3 °C 54.3 °F /  12.4 °C 30.2in /  1023.4hPa Calm     94% 0in /  0.0mm 21 W/m2
07:16 55.9 °F /  13.3 °C 54.3 °F /  12.4 °C 30.2in /  1023.4hPa WNW 0.9mph /  1.4km/h 2mph /  3.2km/h 94% 0in /  0.0mm 23 W/m2
07:21 55.9 °F /  13.3 °C 54.3 °F /  12.4 °C 30.2in /  1023.4hPa Calm   1mph /  1.6km/h 94% 0in /  0.0mm 26 W/m2
07:26 55.9 °F /  13.3 °C 54.3 °F /  12.4 °C 30.2in /  1023.4hPa Calm   1mph /  1.6km/h 94% 0in /  0.0mm 28 W/m2
07:31 55.9 °F /  13.3 °C 54.3 °F /  12.4 °C 30.2in /  1023.4hPa ESE 0.9mph /  1.4km/h 2mph /  3.2km/h 94% 0in /  0.0mm 32 W/m2
07:36 56.1 °F /  13.4 °C 54.5 °F /  12.5 °C 30.2in /  1023.4hPa Calm   2mph /  3.2km/h 94% 0in /  0.0mm 33 W/m2
07:41 56.1 °F /  13.4 °C 54.5 °F /  12.5 °C 30.2in /  1023.4hPa Calm     94% 0in /  0.0mm 35 W/m2
07:46 56.1 °F /  13.4 °C 54.5 °F /  12.5 °C 30.2in /  1023.4hPa ESE 0.9mph /  1.4km/h 2mph /  3.2km/h 94% 0in /  0.0mm 39 W/m2
07:51 56.1 °F /  13.4 °C 54.5 °F /  12.5 °C 30.2in /  1023.4hPa Calm   2mph /  3.2km/h 94% 0in /  0.0mm 40 W/m2
07:56 56.5 °F /  13.6 °C 54.9 °F /  12.7 °C 30.2in /  1023.4hPa NNW 0.9mph /  1.4km/h 2mph /  3.2km/h 94% 0in /  0.0mm 42 W/m2
08:02 56.5 °F /  13.6 °C 54.9 °F /  12.7 °C 30.2in /  1023.7hPa NNW 0.9mph /  1.4km/h 2mph /  3.2km/h 94% 0in /  0.0mm 44 W/m2
08:07 56.7 °F /  13.7 °C 55 °F /  12.8 °C 30.2in /  1023.7hPa NNW 0.9mph /  1.4km/h 4mph /  6.4km/h 94% 0in /  0.0mm 46 W/m2
08:12 56.8 °F /  13.8 °C 55.2 °F /  12.9 °C 30.2in /  1023.7hPa Calm   2mph /  3.2km/h 94% 0in /  0.0mm 47 W/m2
08:17 57.2 °F /  14 °C 55.2 °F /  12.9 °C 30.2in /  1023.7hPa Calm   2mph /  3.2km/h 93% 0in /  0.0mm 49 W/m2
08:22 57.4 °F /  14.1 °C 55.4 °F /  13 °C 30.2in /  1023.7hPa NNW 0.9mph /  1.4km/h 3mph /  4.8km/h 93% 0in /  0.0mm 49 W/m2
08:27 57.7 °F /  14.3 °C 55.8 °F /  13.2 °C 30.2in /  1023.7hPa ESE 2.9mph /  4.7km/h 3mph /  4.8km/h 93% 0in /  0.0mm 90 W/m2
08:32 58.3 °F /  14.6 °C 55.9 °F /  13.3 °C 30.2in /  1023.7hPa SSE 2mph /  3.2km/h 3mph /  4.8km/h 92% 0in /  0.0mm 156 W/m2
08:37 58.6 °F /  14.8 °C 55.9 °F /  13.3 °C 30.2in /  1023.7hPa ENE 2.9mph /  4.7km/h 4mph /  6.4km/h 91% 0in /  0.0mm 202 W/m2
08:42 59 °F /  15 °C 55.8 °F /  13.2 °C 30.2in /  1023.7hPa ENE 2mph /  3.2km/h 5mph /  8km/h 89% 0in /  0.0mm 216 W/m2
08:47 59.4 °F /  15.2 °C 56.1 °F /  13.4 °C 30.2in /  1023.7hPa East 0.9mph /  1.4km/h 3mph /  4.8km/h 89% 0in /  0.0mm 234 W/m2
08:52 59.5 °F /  15.3 °C 55.6 °F /  13.1 °C 30.2in /  1023.7hPa ENE 2.9mph /  4.7km/h 6mph /  9.7km/h 87% 0in /  0.0mm 246 W/m2
08:57 59.7 °F /  15.4 °C 55.6 °F /  13.1 °C 30.2in /  1023.7hPa NE 2mph /  3.2km/h 4mph /  6.4km/h 86% 0in /  0.0mm 258 W/m2
09:02 60.1 °F /  15.6 °C 55.6 °F /  13.1 °C 30.2in /  1023.7hPa ESE 0.9mph /  1.4km/h 5mph /  8km/h 85% 0in /  0.0mm 276 W/m2
09:07 60.3 °F /  15.7 °C 56.1 °F /  13.4 °C 30.2in /  1023.7hPa SE 2.9mph /  4.7km/h 5mph /  8km/h 86% 0in /  0.0mm 290 W/m2
09:12 60.4 °F /  15.8 °C 55.6 °F /  13.1 °C 30.2in /  1023.7hPa East 2mph /  3.2km/h 8mph /  12.9km/h 84% 0in /  0.0mm 304 W/m2
09:17 60.6 °F /  15.9 °C 55.8 °F /  13.2 °C 30.2in /  1023.4hPa ENE 2mph /  3.2km/h 6mph /  9.7km/h 84% 0in /  0.0mm 318 W/m2
09:22 60.8 °F /  16 °C 55.6 °F /  13.1 °C 30.2in /  1023.7hPa WNW 0.9mph /  1.4km/h 2mph /  3.2km/h 83% 0in /  0.0mm 79 W/m2
09:27 61.2 °F /  16.2 °C 55.6 °F /  13.1 °C 30.2in /  1023.7hPa ENE 2mph /  3.2km/h 6mph /  9.7km/h 82% 0in /  0.0mm 69 W/m2
09:32 61.3 °F /  16.3 °C 55.8 °F /  13.2 °C 30.2in /  1023.7hPa East 0.9mph /  1.4km/h 6mph /  9.7km/h 82% 0in /  0.0mm 359 W/m2
09:37 61.7 °F /  16.5 °C 55.4 °F /  13 °C 30.2in /  1023.4hPa North 2.9mph /  4.7km/h 5mph /  8km/h 80% 0in /  0.0mm 374 W/m2
09:42 62.1 °F /  16.7 °C 55.8 °F /  13.2 °C 30.2in /  1023.7hPa SSE 8.1mph /  13km/h 8mph /  12.9km/h 80% 0in /  0.0mm 390 W/m2
09:47 62.6 °F /  17 °C 55.6 °F /  13.1 °C 30.2in /  1023.7hPa East 0.9mph /  1.4km/h 2mph /  3.2km/h 78% 0in /  0.0mm 408 W/m2
09:52 63.1 °F /  17.3 °C 55 °F /  12.8 °C 30.2in /  1023.7hPa NE 4mph /  6.4km/h 8mph /  12.9km/h 75% 0in /  0.0mm 420 W/m2
09:57 63.5 °F /  17.5 °C 55 °F /  12.8 °C 30.2in /  1023.7hPa NE 4mph /  6.4km/h 5mph /  8km/h 74% 0in /  0.0mm 432 W/m2
10:02 63.9 °F /  17.7 °C 55 °F /  12.8 °C 30.2in /  1023.4hPa East 2mph /  3.2km/h 5mph /  8km/h 73% 0in /  0.0mm 448 W/m2
10:07 64.2 °F /  17.9 °C 55.4 °F /  13 °C 30.2in /  1023.4hPa SE 2.9mph /  4.7km/h 6mph /  9.7km/h 73% 0in /  0.0mm 459 W/m2
10:12 64.6 °F /  18.1 °C 55.8 °F /  13.2 °C 30.2in /  1023.4hPa NE 0.9mph /  1.4km/h 6mph /  9.7km/h 73% 0in /  0.0mm 471 W/m2
10:17 64.8 °F /  18.2 °C 54.7 °F /  12.6 °C 30.2in /  1023.7hPa ESE 0.9mph /  1.4km/h 6mph /  9.7km/h 70% 0in /  0.0mm 485 W/m2
10:22 64.8 °F /  18.2 °C 54.3 °F /  12.4 °C 30.2in /  1023.7hPa SE 4mph /  6.4km/h 11mph /  17.7km/h 69% 0in /  0.0mm 496 W/m2
10:27 64.8 °F /  18.2 °C 54.3 °F /  12.4 °C 30.2in /  1023.7hPa East 2mph /  3.2km/h 10mph /  16.1km/h 69% 0in /  0.0mm 504 W/m2
10:32 64.8 °F /  18.2 °C 54 °F /  12.2 °C 30.2in /  1023.7hPa SE 2mph /  3.2km/h 9mph /  14.5km/h 68% 0in /  0.0mm 517 W/m2
10:37 65.1 °F /  18.4 °C 54.3 °F /  12.4 °C 30.2in /  1023.7hPa SSE 0.9mph /  1.4km/h 5mph /  8km/h 68% 0in /  0.0mm 533 W/m2
10:42 65.5 °F /  18.6 °C 55 °F /  12.8 °C 30.2in /  1023.7hPa NE 2.9mph /  4.7km/h 8mph /  12.9km/h 69% 0in /  0.0mm 541 W/m2
10:47 65.8 °F /  18.8 °C 55 °F /  12.8 °C 30.2in /  1023.4hPa NNE 4mph /  6.4km/h 4mph /  6.4km/h 68% 0in /  0.0mm 552 W/m2
10:52 66 °F /  18.9 °C 55.2 °F /  12.9 °C 30.2in /  1023.4hPa ENE 2.9mph /  4.7km/h 6mph /  9.7km/h 68% 0in /  0.0mm 568 W/m2
10:57 66.2 °F /  19 °C 54.1 °F /  12.3 °C 30.2in /  1023.4hPa NE 0.9mph /  1.4km/h 7mph /  11.3km/h 65% 0in /  0.0mm 584 W/m2
11:02 66.4 °F /  19.1 °C 53.4 °F /  11.9 °C 30.2in /  1023.4hPa North 0.9mph /  1.4km/h 9mph /  14.5km/h 63% 0in /  0.0mm 592 W/m2
11:07 66.4 °F /  19.1 °C 53.4 °F /  11.9 °C 30.2in /  1023.4hPa East 8.1mph /  13km/h 11mph /  17.7km/h 63% 0in /  0.0mm 608 W/m2
11:12 66.4 °F /  19.1 °C 52.9 °F /  11.6 °C 30.2in /  1023.4hPa NE 2mph /  3.2km/h 9mph /  14.5km/h 62% 0in /  0.0mm 628 W/m2
11:17 66.6 °F /  19.2 °C 52.7 °F /  11.5 °C 30.2in /  1023.4hPa West 0.9mph /  1.4km/h 11mph /  17.7km/h 61% 0in /  0.0mm 642 W/m2
11:22 66.4 °F /  19.1 °C 52.2 °F /  11.2 °C 30.2in /  1023.4hPa ESE 8.1mph /  13km/h 13mph /  20.9km/h 60% 0in /  0.0mm 638 W/m2
11:27 66.2 °F /  19 °C 52.9 °F /  11.6 °C 30.2in /  1023.4hPa SE 0.9mph /  1.4km/h 8mph /  12.9km/h 62% 0in /  0.0mm 656 W/m2
11:32 66.4 °F /  19.1 °C 52.5 °F /  11.4 °C 30.2in /  1023.4hPa ESE 10.1mph /  16.3km/h 10mph /  16.1km/h 61% 0in /  0.0mm 666 W/m2
11:37 66.6 °F /  19.2 °C 52.7 °F /  11.5 °C 30.2in /  1023.4hPa NNE 11mph /  17.7km/h 11mph /  17.7km/h 61% 0in /  0.0mm 680 W/m2
11:42 66.7 °F /  19.3 °C 52.3 °F /  11.3 °C 30.2in /  1023.4hPa NE 4mph /  6.4km/h 6mph /  9.7km/h 60% 0in /  0.0mm 694 W/m2
11:47 66.9 °F /  19.4 °C 52.5 °F /  11.4 °C 30.2in /  1023.4hPa NE 2.9mph /  4.7km/h 8mph /  12.9km/h 60% 0in /  0.0mm 689 W/m2
11:52 67.1 °F /  19.5 °C 53.2 °F /  11.8 °C 30.2in /  1023.4hPa East 4mph /  6.4km/h 5mph /  8km/h 61% 0in /  0.0mm 696 W/m2
11:57 67.5 °F /  19.7 °C 53.1 °F /  11.7 °C 30.2in /  1023.4hPa NNW 0.9mph /  1.4km/h 9mph /  14.5km/h 60% 0in /  0.0mm 710 W/m2
12:02 67.5 °F /  19.7 °C 52.2 °F /  11.2 °C 30.2in /  1023.4hPa NNW 8.1mph /  13km/h 11mph /  17.7km/h 58% 0in /  0.0mm 722 W/m2
12:07 67.5 °F /  19.7 °C 53.1 °F /  11.7 °C 30.2in /  1023.4hPa East 2.9mph /  4.7km/h 8mph /  12.9km/h 60% 0in /  0.0mm 742 W/m2
12:12 67.6 °F /  19.8 °C 52.3 °F /  11.3 °C 30.2in /  1023.4hPa ESE 2.9mph /  4.7km/h 9mph /  14.5km/h 58% 0in /  0.0mm 756 W/m2
12:17 67.8 °F /  19.9 °C 52.5 °F /  11.4 °C 30.2in /  1023.4hPa SE 2.9mph /  4.7km/h 8mph /  12.9km/h 58% 0in /  0.0mm 791 W/m2
12:22 67.8 °F /  19.9 °C 52.5 °F /  11.4 °C 30.2in /  1023.4hPa NE 4mph /  6.4km/h 11mph /  17.7km/h 58% 0in /  0.0mm 798 W/m2
12:27 68 °F /  20 °C 52.2 °F /  11.2 °C 30.2in /  1023.0hPa East 2mph /  3.2km/h 13mph /  20.9km/h 57% 0in /  0.0mm 758 W/m2
12:32 68.4 °F /  20.2 °C 53.1 °F /  11.7 °C 30.2in /  1023.0hPa ESE 2.9mph /  4.7km/h 5mph /  8km/h 58% 0in /  0.0mm 761 W/m2
12:37 68.7 °F /  20.4 °C 52.9 °F /  11.6 °C 30.2in /  1023.4hPa NE 2mph /  3.2km/h 13mph /  20.9km/h 57% 0in /  0.0mm 788 W/m2
12:42 69.1 °F /  20.6 °C 52.7 °F /  11.5 °C 30.2in /  1023.4hPa NW 2.9mph /  4.7km/h 9mph /  14.5km/h 56% 0in /  0.0mm 816 W/m2
12:47 68.9 °F /  20.5 °C 52.5 °F /  11.4 °C 30.2in /  1023.4hPa East 4mph /  6.4km/h 13mph /  20.9km/h 56% 0in /  0.0mm 751 W/m2
12:52 68.7 °F /  20.4 °C 52 °F /  11.1 °C 30.2in /  1023.4hPa ENE 4mph /  6.4km/h 12mph /  19.3km/h 55% 0in /  0.0mm 752 W/m2
12:57 68.7 °F /  20.4 °C 52 °F /  11.1 °C 30.2in /  1023.0hPa NE 4mph /  6.4km/h 10mph /  16.1km/h 55% 0in /  0.0mm 749 W/m2
13:02 68.7 °F /  20.4 °C 52.3 °F /  11.3 °C 30.2in /  1023.0hPa SE 2mph /  3.2km/h 12mph /  19.3km/h 56% 0in /  0.0mm 763 W/m2
13:07 68.9 °F /  20.5 °C 52.5 °F /  11.4 °C 30.2in /  1023.0hPa NNE 10.1mph /  16.3km/h 10mph /  16.1km/h 56% 0in /  0.0mm 761 W/m2
13:12 68.9 °F /  20.5 °C 52.5 °F /  11.4 °C 30.2in /  1023.0hPa WNW 2mph /  3.2km/h 9mph /  14.5km/h 56% 0in /  0.0mm 766 W/m2
13:17 69.3 °F /  20.7 °C 52.9 °F /  11.6 °C 30.2in /  1022.7hPa NE 2.9mph /  4.7km/h 9mph /  14.5km/h 56% 0in /  0.0mm 768 W/m2
13:22 69.4 °F /  20.8 °C 52.5 °F /  11.4 °C 30.2in /  1022.7hPa ENE 8.1mph /  13km/h 8mph /  12.9km/h 55% 0in /  0.0mm 772 W/m2
13:27 69.4 °F /  20.8 °C 53.1 °F /  11.7 °C 30.2in /  1022.7hPa Calm   5mph /  8km/h 56% 0in /  0.0mm 777 W/m2
13:32 69.6 °F /  20.9 °C 52.2 °F /  11.2 °C 30.2in /  1022.7hPa East 6.9mph /  11.1km/h 7mph /  11.3km/h 54% 0in /  0.0mm 773 W/m2
13:37 69.6 °F /  20.9 °C 52.2 °F /  11.2 °C 30.2in /  1022.7hPa South 4mph /  6.4km/h 8mph /  12.9km/h 54% 0in /  0.0mm 772 W/m2
13:42 69.6 °F /  20.9 °C 52.2 °F /  11.2 °C 30.2in /  1022.7hPa NE 6.9mph /  11.1km/h 10mph /  16.1km/h 54% 0in /  0.0mm 779 W/m2
13:47 69.8 °F /  21 °C 52.3 °F /  11.3 °C 30.2in /  1022.7hPa SE 2.9mph /  4.7km/h 6mph /  9.7km/h 54% 0in /  0.0mm 777 W/m2
13:52 70 °F /  21.1 °C 52.5 °F /  11.4 °C 30.2in /  1022.7hPa ENE 6mph /  9.7km/h 7mph /  11.3km/h 54% 0in /  0.0mm 773 W/m2
13:57 70.2 °F /  21.2 °C 52.2 °F /  11.2 °C 30.2in /  1022.7hPa SW 4mph /  6.4km/h 11mph /  17.7km/h 53% 0in /  0.0mm 777 W/m2
14:02 70.3 °F /  21.3 °C 52.3 °F /  11.3 °C 30.2in /  1022.7hPa NNW 2mph /  3.2km/h 7mph /  11.3km/h 53% 0in /  0.0mm 768 W/m2
14:07 70.5 °F /  21.4 °C 52.5 °F /  11.4 °C 30.2in /  1022.7hPa East 2.9mph /  4.7km/h 11mph /  17.7km/h 53% 0in /  0.0mm 782 W/m2
14:12 70.9 °F /  21.6 °C 52.9 °F /  11.6 °C 30.2in /  1022.7hPa North 0.9mph /  1.4km/h 7mph /  11.3km/h 53% 0in /  0.0mm 780 W/m2
14:17 71.1 °F /  21.7 °C 52.5 °F /  11.4 °C 30.2in /  1022.7hPa ENE 4.9mph /  7.9km/h 6mph /  9.7km/h 52% 0in /  0.0mm 772 W/m2
14:22 71.1 °F /  21.7 °C 52.5 °F /  11.4 °C 30.2in /  1022.7hPa East 6mph /  9.7km/h 8mph /  12.9km/h 52% 0in /  0.0mm 777 W/m2
14:27 70.9 °F /  21.6 °C 52.3 °F /  11.3 °C 30.2in /  1022.7hPa NNW 2.9mph /  4.7km/h 9mph /  14.5km/h 52% 0in /  0.0mm 775 W/m2
14:32 70.9 °F /  21.6 °C 52.9 °F /  11.6 °C 30.2in /  1022.7hPa North 2mph /  3.2km/h 9mph /  14.5km/h 53% 0in /  0.0mm 772 W/m2
14:38 71.2 °F /  21.8 °C 53.8 °F /  12.1 °C 30.2in /  1022.4hPa NNW 0.9mph /  1.4km/h 9mph /  14.5km/h 54% 0in /  0.0mm 766 W/m2
14:43 71.1 °F /  21.7 °C 52.5 °F /  11.4 °C 30.2in /  1022.4hPa NW 0.9mph /  1.4km/h 10mph /  16.1km/h 52% 0in /  0.0mm 758 W/m2
14:48 71.1 °F /  21.7 °C 53.6 °F /  12 °C 30.2in /  1022.4hPa ENE 4mph /  6.4km/h 11mph /  17.7km/h 54% 0in /  0.0mm 756 W/m2
14:53 71.2 °F /  21.8 °C 53.8 °F /  12.1 °C 30.2in /  1022.7hPa SE 2.9mph /  4.7km/h 9mph /  14.5km/h 54% 0in /  0.0mm 752 W/m2
14:58 71.2 °F /  21.8 °C 53.2 °F /  11.8 °C 30.2in /  1022.7hPa WNW 4mph /  6.4km/h 7mph /  11.3km/h 53% 0in /  0.0mm 749 W/m2
15:03 71.4 °F /  21.9 °C 54.5 °F /  12.5 °C 30.2in /  1022.4hPa Calm   4mph /  6.4km/h 55% 0in /  0.0mm 744 W/m2
15:08 72 °F /  22.2 °C 53.4 °F /  11.9 °C 30.2in /  1022.7hPa SE 4mph /  6.4km/h 7mph /  11.3km/h 52% 0in /  0.0mm 740 W/m2
15:13 71.8 °F /  22.1 °C 53.8 °F /  12.1 °C 30.2in /  1022.7hPa ENE 8.1mph /  13km/h 12mph /  19.3km/h 53% 0in /  0.0mm 731 W/m2
15:18 71.8 °F /  22.1 °C 53.8 °F /  12.1 °C 30.2in /  1022.4hPa ENE 2.9mph /  4.7km/h 6mph /  9.7km/h 53% 0in /  0.0mm 726 W/m2
15:23 71.8 °F /  22.1 °C 53.2 °F /  11.8 °C 30.2in /  1022.7hPa ENE 4.9mph /  7.9km/h 12mph /  19.3km/h 52% 0in /  0.0mm 717 W/m2
15:28 72 °F /  22.2 °C 54 °F /  12.2 °C 30.2in /  1022.4hPa ESE 4mph /  6.4km/h 8mph /  12.9km/h 53% 0in /  0.0mm 712 W/m2
15:33 72 °F /  22.2 °C 53.4 °F /  11.9 °C 30.2in /  1022.4hPa NE 2.9mph /  4.7km/h 8mph /  12.9km/h 52% 0in /  0.0mm 703 W/m2
15:38 72.1 °F /  22.3 °C 53.6 °F /  12 °C 30.2in /  1022.4hPa NNW 4mph /  6.4km/h 8mph /  12.9km/h 52% 0in /  0.0mm 701 W/m2
15:43 72.3 °F /  22.4 °C 53.8 °F /  12.1 °C 30.2in /  1022.4hPa Calm   7mph /  11.3km/h 52% 0in /  0.0mm 694 W/m2
15:48 72.9 °F /  22.7 °C 54.1 °F /  12.3 °C 30.2in /  1022.4hPa ESE 2mph /  3.2km/h 5mph /  8km/h 52% 0in /  0.0mm 684 W/m2
15:53 72.7 °F /  22.6 °C 52.9 °F /  11.6 °C 30.2in /  1022.4hPa ESE 2.9mph /  4.7km/h 10mph /  16.1km/h 50% 0in /  0.0mm 677 W/m2
15:58 72.7 °F /  22.6 °C 55 °F /  12.8 °C 30.2in /  1022.4hPa SE 0.9mph /  1.4km/h 5mph /  8km/h 54% 0in /  0.0mm 668 W/m2
16:03 72.9 °F /  22.7 °C 53.6 °F /  12 °C 30.2in /  1022.4hPa ENE 2mph /  3.2km/h 11mph /  17.7km/h 51% 0in /  0.0mm 661 W/m2
16:08 72.9 °F /  22.7 °C 54.1 °F /  12.3 °C 30.2in /  1022.4hPa East 2.9mph /  4.7km/h 9mph /  14.5km/h 52% 0in /  0.0mm 652 W/m2
16:13 72.7 °F /  22.6 °C 54 °F /  12.2 °C 30.2in /  1022.4hPa East 6mph /  9.7km/h 11mph /  17.7km/h 52% 0in /  0.0mm 647 W/m2
16:18 72.9 °F /  22.7 °C 53.6 °F /  12 °C 30.2in /  1022.4hPa ESE 4mph /  6.4km/h 7mph /  11.3km/h 51% 0in /  0.0mm 635 W/m2
16:23 72.9 °F /  22.7 °C 54.1 °F /  12.3 °C 30.2in /  1022.4hPa ENE 4mph /  6.4km/h 9mph /  14.5km/h 52% 0in /  0.0mm 626 W/m2
16:28 73 °F /  22.8 °C 54.3 °F /  12.4 °C 30.2in /  1022.4hPa NE 4.9mph /  7.9km/h 11mph /  17.7km/h 52% 0in /  0.0mm 617 W/m2
16:33 72.9 °F /  22.7 °C 54.7 °F /  12.6 °C 30.2in /  1022.4hPa NNE 2mph /  3.2km/h 8mph /  12.9km/h 53% 0in /  0.0mm 608 W/m2
16:38 73 °F /  22.8 °C 54.3 °F /  12.4 °C 30.2in /  1022.4hPa East 2mph /  3.2km/h 5mph /  8km/h 52% 0in /  0.0mm 596 W/m2
16:43 73 °F /  22.8 °C 54.3 °F /  12.4 °C 30.2in /  1022.4hPa WNW 2.9mph /  4.7km/h 8mph /  12.9km/h 52% 0in /  0.0mm 587 W/m2
16:48 73 °F /  22.8 °C 54.9 °F /  12.7 °C 30.2in /  1022.0hPa Calm   5mph /  8km/h 53% 0in /  0.0mm 580 W/m2
16:53 73.6 °F /  23.1 °C 54.9 °F /  12.7 °C 30.2in /  1022.0hPa East 2mph /  3.2km/h 5mph /  8km/h 52% 0in /  0.0mm 564 W/m2
16:58 73.8 °F /  23.2 °C 54.5 °F /  12.5 °C 30.2in /  1022.0hPa North 8.1mph /  13km/h 9mph /  14.5km/h 51% 0in /  0.0mm 599 W/m2
17:03 73.8 °F /  23.2 °C 55 °F /  12.8 °C 30.2in /  1022.0hPa NNW 2mph /  3.2km/h 5mph /  8km/h 52% 0in /  0.0mm 575 W/m2
17:08 73.4 °F /  23 °C 54.7 °F /  12.6 °C 30.2in /  1022.0hPa ENE 6mph /  9.7km/h 12mph /  19.3km/h 52% 0in /  0.0mm 540 W/m2
17:13 73.2 °F /  22.9 °C 55.6 °F /  13.1 °C 30.2in /  1022.0hPa ESE 2.9mph /  4.7km/h 4mph /  6.4km/h 54% 0in /  0.0mm 529 W/m2
17:18 73.4 °F /  23 °C 54.1 °F /  12.3 °C 30.2in /  1022.0hPa East 2.9mph /  4.7km/h 12mph /  19.3km/h 51% 0in /  0.0mm 436 W/m2
17:23 73.6 °F /  23.1 °C 54.9 °F /  12.7 °C 30.2in /  1022.0hPa NE 6.9mph /  11.1km/h 7mph /  11.3km/h 52% 0in /  0.0mm 501 W/m2
17:28 73.6 °F /  23.1 °C 54.9 °F /  12.7 °C 30.2in /  1022.0hPa SE 4.9mph /  7.9km/h 12mph /  19.3km/h 52% 0in /  0.0mm 513 W/m2
17:33 73.4 °F /  23 °C 54.7 °F /  12.6 °C 30.2in /  1022.0hPa ESE 2mph /  3.2km/h 10mph /  16.1km/h 52% 0in /  0.0mm 571 W/m2
17:38 73.9 °F /  23.3 °C 56.3 °F /  13.5 °C 30.2in /  1021.7hPa ENE 2.9mph /  4.7km/h 7mph /  11.3km/h 54% 0in /  0.0mm 564 W/m2
17:43 73.8 °F /  23.2 °C 55.6 °F /  13.1 °C 30.2in /  1022.0hPa East 2mph /  3.2km/h 12mph /  19.3km/h 53% 0in /  0.0mm 144 W/m2
17:48 73 °F /  22.8 °C 55.9 °F /  13.3 °C 30.2in /  1022.0hPa East 2.9mph /  4.7km/h 6mph /  9.7km/h 55% 0in /  0.0mm 434 W/m2
17:53 72.9 °F /  22.7 °C 56.7 °F /  13.7 °C 30.2in /  1022.0hPa ESE 4mph /  6.4km/h 9mph /  14.5km/h 57% 0in /  0.0mm 443 W/m2
17:58 73 °F /  22.8 °C 56.8 °F /  13.8 °C 30.2in /  1022.0hPa ESE 0.9mph /  1.4km/h 5mph /  8km/h 57% 0in /  0.0mm 420 W/m2
18:03 72.9 °F /  22.7 °C 56.3 °F /  13.5 °C 30.2in /  1022.0hPa NE 2mph /  3.2km/h 10mph /  16.1km/h 56% 0in /  0.0mm 397 W/m2
18:08 72.5 °F /  22.5 °C 55.9 °F /  13.3 °C 30.2in /  1022.0hPa ENE 4.9mph /  7.9km/h 12mph /  19.3km/h 56% 0in /  0.0mm 332 W/m2
18:13 72.1 °F /  22.3 °C 56.5 °F /  13.6 °C 30.2in /  1022.0hPa ENE 0.9mph /  1.4km/h 7mph /  11.3km/h 58% 0in /  0.0mm 322 W/m2
18:18 72.1 °F /  22.3 °C 56.1 °F /  13.4 °C 30.2in /  1022.0hPa ESE 2mph /  3.2km/h 13mph /  20.9km/h 57% 0in /  0.0mm 385 W/m2
18:23 72.1 °F /  22.3 °C 56.1 °F /  13.4 °C 30.2in /  1022.0hPa SE 8.1mph /  13km/h 8mph /  12.9km/h 57% 0in /  0.0mm 353 W/m2
18:28 72 °F /  22.2 °C 55.9 °F /  13.3 °C 30.2in /  1022.0hPa ENE 2mph /  3.2km/h 4mph /  6.4km/h 57% 0in /  0.0mm 288 W/m2
18:33 72.1 °F /  22.3 °C 56.1 °F /  13.4 °C 30.2in /  1022.0hPa NE 2mph /  3.2km/h 6mph /  9.7km/h 57% 0in /  0.0mm 327 W/m2
18:38 72 °F /  22.2 °C 55.9 °F /  13.3 °C 30.2in /  1022.0hPa ENE 2.9mph /  4.7km/h 12mph /  19.3km/h 57% 0in /  0.0mm 229 W/m2
18:43 71.8 °F /  22.1 °C 55.8 °F /  13.2 °C 30.2in /  1022.0hPa ENE 4mph /  6.4km/h 8mph /  12.9km/h 57% 0in /  0.0mm 258 W/m2
18:48 71.2 °F /  21.8 °C 56.1 °F /  13.4 °C 30.2in /  1022.0hPa NNE 2.9mph /  4.7km/h 10mph /  16.1km/h 59% 0in /  0.0mm 227 W/m2
18:53 71.1 °F /  21.7 °C 56.5 °F /  13.6 °C 30.2in /  1022.0hPa ENE 0.9mph /  1.4km/h 9mph /  14.5km/h 60% 0in /  0.0mm 230 W/m2
18:58 71.1 °F /  21.7 °C 56.8 °F /  13.8 °C 30.2in /  1022.4hPa East 2.9mph /  4.7km/h 6mph /  9.7km/h 61% 0in /  0.0mm 193 W/m2
19:03 70.9 °F /  21.6 °C 57.2 °F /  14 °C 30.2in /  1022.4hPa ESE 4mph /  6.4km/h 7mph /  11.3km/h 62% 0in /  0.0mm 188 W/m2
19:08 70.3 °F /  21.3 °C 56.7 °F /  13.7 °C 30.2in /  1022.4hPa ENE 4mph /  6.4km/h 7mph /  11.3km/h 62% 0in /  0.0mm 197 W/m2
19:13 70 °F /  21.1 °C 55.4 °F /  13 °C 30.2in /  1022.4hPa East 6.9mph /  11.1km/h 13mph /  20.9km/h 60% 0in /  0.0mm 142 W/m2
19:18 69.4 °F /  20.8 °C 55.4 °F /  13 °C 30.2in /  1022.4hPa East 0.9mph /  1.4km/h 10mph /  16.1km/h 61% 0in /  0.0mm 155 W/m2
19:23 69.3 °F /  20.7 °C 55.8 °F /  13.2 °C 30.2in /  1022.4hPa ESE 2.9mph /  4.7km/h 13mph /  20.9km/h 62% 0in /  0.0mm 86 W/m2
19:28 68.9 °F /  20.5 °C 54.9 °F /  12.7 °C 30.2in /  1022.4hPa NNE 0.9mph /  1.4km/h 6mph /  9.7km/h 61% 0in /  0.0mm 120 W/m2
19:33 68.7 °F /  20.4 °C 55.2 °F /  12.9 °C 30.2in /  1022.4hPa NE 4mph /  6.4km/h 6mph /  9.7km/h 62% 0in /  0.0mm 113 W/m2
19:38 68.7 °F /  20.4 °C 54.7 °F /  12.6 °C 30.2in /  1022.4hPa NE 2.9mph /  4.7km/h 9mph /  14.5km/h 61% 0in /  0.0mm 111 W/m2
19:43 68.7 °F /  20.4 °C 54.7 °F /  12.6 °C 30.2in /  1022.4hPa ESE 2.9mph /  4.7km/h 5mph /  8km/h 61% 0in /  0.0mm 76 W/m2
19:48 68.5 °F /  20.3 °C 54.5 °F /  12.5 °C 30.2in /  1022.4hPa East 2.9mph /  4.7km/h 6mph /  9.7km/h 61% 0in /  0.0mm 35 W/m2
19:53 68.2 °F /  20.1 °C 54.7 °F /  12.6 °C 30.2in /  1022.4hPa ESE 0.9mph /  1.4km/h 4mph /  6.4km/h 62% 0in /  0.0mm 18 W/m2
19:58 67.8 °F /  19.9 °C 54.7 °F /  12.6 °C 30.2in /  1022.4hPa Calm   2mph /  3.2km/h 63% 0in /  0.0mm 18 W/m2
20:03 67.5 °F /  19.7 °C 54.5 °F /  12.5 °C 30.2in /  1022.4hPa ENE 0.9mph /  1.4km/h 5mph /  8km/h 63% 0in /  0.0mm 16 W/m2
20:08 67.3 °F /  19.6 °C 54.7 °F /  12.6 °C 30.2in /  1022.4hPa East 0.9mph /  1.4km/h 6mph /  9.7km/h 64% 0in /  0.0mm 14 W/m2
20:13 66.9 °F /  19.4 °C 54.3 °F /  12.4 °C 30.2in /  1022.4hPa East 2mph /  3.2km/h 9mph /  14.5km/h 64% 0in /  0.0mm 12 W/m2
20:18 66.7 °F /  19.3 °C 55 °F /  12.8 °C 30.2in /  1022.4hPa NNE 2.9mph /  4.7km/h 7mph /  11.3km/h 66% 0in /  0.0mm 12 W/m2
20:23 66.6 °F /  19.2 °C 54.9 °F /  12.7 °C 30.2in /  1022.7hPa SE 2mph /  3.2km/h 6mph /  9.7km/h 66% 0in /  0.0mm 9 W/m2
20:28 66.2 °F /  19 °C 54.5 °F /  12.5 °C 30.2in /  1022.4hPa Calm   7mph /  11.3km/h 66% 0in /  0.0mm 5 W/m2
20:33 65.8 °F /  18.8 °C 54.5 °F /  12.5 °C 30.2in /  1022.4hPa Calm   3mph /  4.8km/h 67% 0in /  0.0mm 0 W/m2
20:38 65.7 °F /  18.7 °C 54.9 °F /  12.7 °C 30.2in /  1022.7hPa East 0.9mph /  1.4km/h 9mph /  14.5km/h 68% 0in /  0.0mm 0 W/m2
20:43 65.5 °F /  18.6 °C 54.7 °F /  12.6 °C 30.2in /  1022.7hPa Calm   3mph /  4.8km/h 68% 0in /  0.0mm 0 W/m2
20:48 65.3 °F /  18.5 °C 54.9 °F /  12.7 °C 30.2in /  1022.7hPa ENE 0.9mph /  1.4km/h 9mph /  14.5km/h 69% 0in /  0.0mm 0 W/m2
20:53 65.1 °F /  18.4 °C 54.7 °F /  12.6 °C 30.2in /  1022.7hPa ESE 2.9mph /  4.7km/h 3mph /  4.8km/h 69% 0in /  0.0mm 0 W/m2
20:58 64.9 °F /  18.3 °C 54.9 °F /  12.7 °C 30.2in /  1022.7hPa ENE 0.9mph /  1.4km/h 6mph /  9.7km/h 70% 0in /  0.0mm 0 W/m2
21:03 64.8 °F /  18.2 °C 54.7 °F /  12.6 °C 30.2in /  1022.7hPa NE 2mph /  3.2km/h 4mph /  6.4km/h 70% 0in /  0.0mm 0 W/m2
21:08 64.6 °F /  18.1 °C 55 °F /  12.8 °C 30.2in /  1023.0hPa ENE 0.9mph /  1.4km/h 6mph /  9.7km/h 71% 0in /  0.0mm 0 W/m2
21:13 64.6 °F /  18.1 °C 55 °F /  12.8 °C 30.2in /  1023.0hPa East 0.9mph /  1.4km/h 2mph /  3.2km/h 71% 0in /  0.0mm 0 W/m2
21:18 64.2 °F /  17.9 °C 55 °F /  12.8 °C 30.2in /  1023.0hPa ENE 2mph /  3.2km/h 2mph /  3.2km/h 72% 0in /  0.0mm 0 W/m2
21:23 64 °F /  17.8 °C 54.9 °F /  12.7 °C 30.2in /  1023.0hPa NE 2.9mph /  4.7km/h 3mph /  4.8km/h 72% 0in /  0.0mm 0 W/m2
21:28 63.9 °F /  17.7 °C 54.7 °F /  12.6 °C 30.2in /  1023.0hPa East 0.9mph /  1.4km/h 3mph /  4.8km/h 72% 0in /  0.0mm 0 W/m2
21:33 63.7 °F /  17.6 °C 54.9 °F /  12.7 °C 30.2in /  1022.7hPa SSE 2mph /  3.2km/h 2mph /  3.2km/h 73% 0in /  0.0mm 0 W/m2
21:38 63.7 °F /  17.6 °C 54.9 °F /  12.7 °C 30.2in /  1022.7hPa ESE 0.9mph /  1.4km/h 3mph /  4.8km/h 73% 0in /  0.0mm 0 W/m2
21:43 63.3 °F /  17.4 °C 54.9 °F /  12.7 °C 30.2in /  1022.7hPa SE 2.9mph /  4.7km/h 3mph /  4.8km/h 74% 0in /  0.0mm 0 W/m2
21:48 63.3 °F /  17.4 °C 54.9 °F /  12.7 °C 30.2in /  1022.7hPa Calm   3mph /  4.8km/h 74% 0in /  0.0mm 0 W/m2
21:53 63.1 °F /  17.3 °C 54.7 °F /  12.6 °C 30.2in /  1022.7hPa ESE 0.9mph /  1.4km/h 3mph /  4.8km/h 74% 0in /  0.0mm 0 W/m2
21:58 63 °F /  17.2 °C 54.9 °F /  12.7 °C 30.2in /  1023.0hPa SE 0.9mph /  1.4km/h 2mph /  3.2km/h 75% 0in /  0.0mm 0 W/m2
22:03 62.8 °F /  17.1 °C 55 °F /  12.8 °C 30.2in /  1022.7hPa Calm   1mph /  1.6km/h 76% 0in /  0.0mm 0 W/m2
22:09 62.4 °F /  16.9 °C 54.7 °F /  12.6 °C 30.2in /  1023.0hPa East 0.9mph /  1.4km/h 3mph /  4.8km/h 76% 0in /  0.0mm 0 W/m2
22:14 62.4 °F /  16.9 °C 55 °F /  12.8 °C 30.2in /  1022.7hPa East 2mph /  3.2km/h 3mph /  4.8km/h 77% 0in /  0.0mm 0 W/m2
22:19 62.2 °F /  16.8 °C 54.9 °F /  12.7 °C 30.2in /  1022.7hPa East 0.9mph /  1.4km/h 2mph /  3.2km/h 77% 0in /  0.0mm 0 W/m2
22:24 62.1 °F /  16.7 °C 54.7 °F /  12.6 °C 30.2in /  1022.7hPa ESE 0.9mph /  1.4km/h 3mph /  4.8km/h 77% 0in /  0.0mm 0 W/m2
22:29 61.9 °F /  16.6 °C 54.9 °F /  12.7 °C 30.2in /  1022.7hPa SE 0.9mph /  1.4km/h 2mph /  3.2km/h 78% 0in /  0.0mm 0 W/m2
22:34 61.5 °F /  16.4 °C 54.7 °F /  12.6 °C 30.2in /  1022.7hPa Calm   3mph /  4.8km/h 78% 0in /  0.0mm 0 W/m2
22:39 61.3 °F /  16.3 °C 54.9 °F /  12.7 °C 30.2in /  1022.7hPa SE 0.9mph /  1.4km/h 1mph /  1.6km/h 79% 0in /  0.0mm 0 W/m2
22:44 61.2 °F /  16.2 °C 54.7 °F /  12.6 °C 30.2in /  1022.7hPa Calm     79% 0in /  0.0mm 0 W/m2
22:49 60.8 °F /  16 °C 54.7 °F /  12.6 °C 30.2in /  1022.7hPa Calm   1mph /  1.6km/h 80% 0in /  0.0mm 0 W/m2
22:54 60.4 °F /  15.8 °C 54.5 °F /  12.5 °C 30.2in /  1022.7hPa Calm     81% 0in /  0.0mm 0 W/m2
22:59 60.3 °F /  15.7 °C 54.7 °F /  12.6 °C 30.2in /  1022.7hPa Calm     82% 0in /  0.0mm 0 W/m2
23:04 59.9 °F /  15.5 °C 54.3 °F /  12.4 °C 30.2in /  1022.7hPa Calm     82% 0in /  0.0mm 0 W/m2
23:09 59.7 °F /  15.4 °C 54.1 °F /  12.3 °C 30.2in /  1022.7hPa Calm     82% 0in /  0.0mm 0 W/m2
23:14 59.4 °F /  15.2 °C 54.1 °F /  12.3 °C 30.2in /  1022.7hPa SSW 0.9mph /  1.4km/h 3mph /  4.8km/h 83% 0in /  0.0mm 0 W/m2
23:19 59.2 °F /  15.1 °C 54.3 °F /  12.4 °C 30.2in /  1022.7hPa Calm   2mph /  3.2km/h 84% 0in /  0.0mm 0 W/m2
23:24 58.8 °F /  14.9 °C 54 °F /  12.2 °C 30.2in /  1022.7hPa WSW 2mph /  3.2km/h 2mph /  3.2km/h 84% 0in /  0.0mm 0 W/m2
23:29 58.8 °F /  14.9 °C 54 °F /  12.2 °C 30.2in /  1022.7hPa WSW 2mph /  3.2km/h 2mph /  3.2km/h 84% 0in /  0.0mm 0 W/m2
23:34 58.8 °F /  14.9 °C 54 °F /  12.2 °C 30.2in /  1022.7hPa Calm   1mph /  1.6km/h 84% 0in /  0.0mm 0 W/m2
23:39 58.6 °F /  14.8 °C 54.1 °F /  12.3 °C 30.2in /  1023.0hPa WSW 0.9mph /  1.4km/h 1mph /  1.6km/h 85% 0in /  0.0mm 0 W/m2
23:44 58.8 °F /  14.9 °C 54.3 °F /  12.4 °C 30.2in /  1023.0hPa WSW 2mph /  3.2km/h 3mph /  4.8km/h 85% 0in /  0.0mm 0 W/m2
23:49 58.8 °F /  14.9 °C 54.3 °F /  12.4 °C 30.2in /  1023.0hPa WSW 2.9mph /  4.7km/h 3mph /  4.8km/h 85% 0in /  0.0mm 0 W/m2
23:54 59 °F /  15 °C 54.1 °F /  12.3 °C 30.2in /  1023.0hPa Calm   2mph /  3.2km/h 84% 0in /  0.0mm 0 W/m2
23:59 59 °F /  15 °C 54.1 °F /  12.3 °C 30.2in /  1022.7hPa WNW 0.9mph /  1.4km/h 2mph /  3.2km/h 84% 0in /  0.0mm 0 W/m2
Juneau County Weather
Compliments of Weather Underground - 4 mb